KAL907 RKSI-EGLL
Flight info
| Callsign | KAL907 |
|---|---|
| Flight time | N/A |
| Altitude | 30000 |
| Route | NOPIK Y697 AGAVO/K0830S0660 A591 IKEKA W4 FZ/K0935S0920 W4 HCH W200 DOVIV W55 PAMRU W34 LADIX/K0924S0980 B339 ASILA A575 UPREK W28 LAGEB W66 NUKTI B215 IRPEP/K0895S1040 B215 FKG A368 SARIN/K0900F340 N161 RELGE/K0902F360 N161 GASBI/N0491F360 N161 LEKBA DCT LEYLA T916 MATAL M11 REBLO UM11 CRM UL746 ODERO L746 LUGEB DCT BUDOP/N0476F380 DCT BEGLA DCT DEXIT DCT INBED DCT BOMBI DCT ADKUV DCT SOGRI DCT DENUT L608 LOGAN |
| Aircraft | B77W/H-SDE1E2E3FGHIJ2J3J4J5M1RWXY/LB1D1 |
Departure
| Time | N/A |
|---|---|
| Airport | Incheon International Airport (RKSI) |
Arrival
| Time | 2026-05-06 13:16 |
|---|---|
| Airport | London Heathrow Airport (EGLL) |
| Time | Latitude | Longitude | Altitude | Speed | Heading |
|---|---|---|---|---|---|
| 2026-05-06 12:33 | 50.88609 | 4.79199 | 37880 ft | 481 kts | 294° |
| 2026-05-06 12:33 | 50.90090 | 4.74545 | 37882 ft | 481 kts | 294° |
| 2026-05-06 12:33 | 50.93089 | 4.65028 | 37895 ft | 482 kts | 294° |
| 2026-05-06 12:34 | 50.96054 | 4.55553 | 37882 ft | 482 kts | 294° |
| 2026-05-06 12:34 | 50.99003 | 4.46096 | 37885 ft | 481 kts | 294° |
| 2026-05-06 12:35 | 51.01951 | 4.36612 | 37885 ft | 481 kts | 294° |
| 2026-05-06 12:35 | 51.04906 | 4.27066 | 37884 ft | 481 kts | 294° |
| 2026-05-06 12:36 | 51.07849 | 4.17524 | 37887 ft | 480 kts | 294° |
| 2026-05-06 12:36 | 51.10785 | 4.07966 | 37893 ft | 481 kts | 294° |
| 2026-05-06 12:37 | 51.13717 | 3.98386 | 37887 ft | 481 kts | 294° |
| 2026-05-06 12:37 | 51.16622 | 3.88852 | 37887 ft | 477 kts | 294° |
| 2026-05-06 12:38 | 51.19483 | 3.79432 | 37891 ft | 468 kts | 294° |
| 2026-05-06 12:38 | 51.22303 | 3.70110 | 37898 ft | 465 kts | 294° |
| 2026-05-06 12:39 | 51.25268 | 3.61133 | 37903 ft | 441 kts | 298° |
| 2026-05-06 12:39 | 51.28384 | 3.52856 | 37909 ft | 431 kts | 298° |
| 2026-05-06 12:40 | 51.31391 | 3.44776 | 37903 ft | 426 kts | 298° |
| 2026-05-06 12:40 | 51.34357 | 3.36656 | 37917 ft | 421 kts | 296° |
| 2026-05-06 12:41 | 51.36612 | 3.28199 | 37927 ft | 418 kts | 288° |
| 2026-05-06 12:41 | 51.38632 | 3.19450 | 37925 ft | 420 kts | 288° |
| 2026-05-06 12:42 | 51.40698 | 3.10701 | 37932 ft | 421 kts | 288° |
| 2026-05-06 12:42 | 51.42765 | 3.01928 | 37936 ft | 423 kts | 288° |
| 2026-05-06 12:43 | 51.44835 | 2.93083 | 37939 ft | 423 kts | 289° |
| 2026-05-06 12:43 | 51.46904 | 2.84211 | 37942 ft | 423 kts | 288° |
| 2026-05-06 12:44 | 51.48943 | 2.75431 | 37917 ft | 422 kts | 288° |
| 2026-05-06 12:44 | 51.50982 | 2.66612 | 37942 ft | 419 kts | 288° |
| 2026-05-06 12:45 | 51.53001 | 2.57849 | 37929 ft | 417 kts | 288° |
| 2026-05-06 12:46 | 51.55985 | 2.44805 | 37929 ft | 414 kts | 288° |
| 2026-05-06 12:46 | 51.56971 | 2.40456 | 37723 ft | 409 kts | 288° |
| 2026-05-06 12:46 | 51.57929 | 2.36230 | 37065 ft | 396 kts | 288° |
| 2026-05-06 12:46 | 51.58865 | 2.32108 | 36192 ft | 390 kts | 288° |
| 2026-05-06 12:47 | 51.59783 | 2.28077 | 35277 ft | 386 kts | 288° |
| 2026-05-06 12:47 | 51.60710 | 2.24002 | 34534 ft | 390 kts | 288° |
| 2026-05-06 12:47 | 51.61640 | 2.19912 | 34212 ft | 386 kts | 288° |
| 2026-05-06 12:47 | 51.62543 | 2.15933 | 33826 ft | 373 kts | 289° |
| 2026-05-06 12:48 | 51.63423 | 2.12043 | 33038 ft | 368 kts | 288° |
| 2026-05-06 12:48 | 51.64298 | 2.08164 | 32173 ft | 367 kts | 288° |
| 2026-05-06 12:48 | 51.65169 | 2.04311 | 31307 ft | 362 kts | 288° |
| 2026-05-06 12:48 | 51.66026 | 2.00513 | 30365 ft | 362 kts | 288° |
| 2026-05-06 12:49 | 51.66894 | 1.96651 | 29574 ft | 369 kts | 288° |
| 2026-05-06 12:49 | 51.67759 | 1.92801 | 29179 ft | 366 kts | 288° |
| 2026-05-06 12:49 | 51.68618 | 1.88974 | 28885 ft | 359 kts | 288° |
| 2026-05-06 12:49 | 51.69460 | 1.85215 | 28533 ft | 355 kts | 288° |
| 2026-05-06 12:50 | 51.70294 | 1.81487 | 27985 ft | 347 kts | 288° |
| 2026-05-06 12:50 | 51.71106 | 1.77849 | 27098 ft | 343 kts | 288° |
| 2026-05-06 12:50 | 51.71897 | 1.74294 | 26159 ft | 341 kts | 288° |
| 2026-05-06 12:50 | 51.72704 | 1.70666 | 25454 ft | 345 kts | 288° |
| 2026-05-06 12:51 | 51.73508 | 1.67045 | 25223 ft | 338 kts | 287° |
| 2026-05-06 12:51 | 51.74301 | 1.63457 | 25041 ft | 340 kts | 286° |
| 2026-05-06 12:51 | 51.74751 | 1.59755 | 24911 ft | 332 kts | 268° |
| 2026-05-06 12:51 | 51.74587 | 1.56098 | 24471 ft | 323 kts | 262° |
| 2026-05-06 12:52 | 51.74335 | 1.52515 | 23908 ft | 319 kts | 262° |
| 2026-05-06 12:52 | 51.74074 | 1.48962 | 23168 ft | 319 kts | 262° |
| 2026-05-06 12:52 | 51.73821 | 1.45457 | 22374 ft | 321 kts | 262° |
| 2026-05-06 12:52 | 51.73568 | 1.41845 | 21892 ft | 322 kts | 263° |
| 2026-05-06 12:53 | 51.73325 | 1.38305 | 21584 ft | 313 kts | 263° |
| 2026-05-06 12:53 | 51.73090 | 1.34828 | 21339 ft | 307 kts | 263° |
| 2026-05-06 12:53 | 51.72864 | 1.31449 | 21093 ft | 301 kts | 263° |
| 2026-05-06 12:53 | 51.72643 | 1.28151 | 20611 ft | 293 kts | 263° |
| 2026-05-06 12:54 | 51.72421 | 1.24851 | 20046 ft | 298 kts | 263° |
| 2026-05-06 12:54 | 51.72200 | 1.21567 | 19705 ft | 296 kts | 263° |
| 2026-05-06 12:54 | 51.71979 | 1.18283 | 19427 ft | 292 kts | 263° |
| 2026-05-06 12:54 | 51.71761 | 1.15060 | 19038 ft | 286 kts | 264° |
| 2026-05-06 12:55 | 51.71546 | 1.11899 | 18403 ft | 285 kts | 264° |
| 2026-05-06 12:55 | 51.71330 | 1.08717 | 17704 ft | 284 kts | 264° |
| 2026-05-06 12:55 | 51.71114 | 1.05559 | 16987 ft | 286 kts | 264° |
| 2026-05-06 12:55 | 51.70894 | 1.02341 | 16568 ft | 287 kts | 264° |
| 2026-05-06 12:56 | 51.70673 | 0.99150 | 16219 ft | 286 kts | 264° |
| 2026-05-06 12:56 | 51.70454 | 0.96004 | 16031 ft | 278 kts | 264° |
| 2026-05-06 12:56 | 51.70246 | 0.93006 | 15862 ft | 271 kts | 264° |
| 2026-05-06 12:56 | 51.70034 | 0.89958 | 15419 ft | 274 kts | 264° |
| 2026-05-06 12:57 | 51.69825 | 0.86934 | 15134 ft | 270 kts | 264° |
| 2026-05-06 12:57 | 51.69612 | 0.83895 | 14707 ft | 273 kts | 264° |
| 2026-05-06 12:57 | 51.69401 | 0.80869 | 14407 ft | 271 kts | 264° |
| 2026-05-06 12:57 | 51.69190 | 0.77850 | 14107 ft | 269 kts | 264° |
| 2026-05-06 12:58 | 51.68978 | 0.74861 | 13791 ft | 268 kts | 265° |
| 2026-05-06 12:58 | 51.68768 | 0.71889 | 13456 ft | 267 kts | 265° |
| 2026-05-06 12:58 | 51.68557 | 0.68926 | 13127 ft | 264 kts | 265° |
| 2026-05-06 12:58 | 51.68347 | 0.65996 | 12668 ft | 268 kts | 266° |
| 2026-05-06 12:59 | 51.68129 | 0.62929 | 11899 ft | 283 kts | 265° |
| 2026-05-06 12:59 | 51.67896 | 0.59666 | 11073 ft | 301 kts | 265° |
| 2026-05-06 12:59 | 51.67650 | 0.56262 | 10487 ft | 308 kts | 265° |
| 2026-05-06 12:59 | 51.67401 | 0.52833 | 10118 ft | 307 kts | 265° |
| 2026-05-06 13:00 | 51.67151 | 0.49419 | 9742 ft | 305 kts | 265° |
| 2026-05-06 13:00 | 51.66903 | 0.46028 | 9335 ft | 303 kts | 266° |
| 2026-05-06 13:00 | 51.66655 | 0.42660 | 8935 ft | 302 kts | 266° |
| 2026-05-06 13:00 | 51.66410 | 0.39347 | 8548 ft | 301 kts | 266° |
| 2026-05-06 13:01 | 51.66163 | 0.35992 | 8175 ft | 301 kts | 264° |
| 2026-05-06 13:01 | 51.65915 | 0.32668 | 7988 ft | 298 kts | 265° |
| 2026-05-06 13:01 | 51.65667 | 0.29340 | 7994 ft | 301 kts | 265° |
| 2026-05-06 13:01 | 51.65498 | 0.27073 | 7985 ft | 301 kts | 266° |
| 2026-05-06 13:02 | 51.65250 | 0.23735 | 7993 ft | 301 kts | 265° |
| 2026-05-06 13:02 | 51.65000 | 0.20423 | 7989 ft | 300 kts | 264° |
| 2026-05-06 13:02 | 51.64748 | 0.17079 | 7993 ft | 300 kts | 265° |
| 2026-05-06 13:02 | 51.64526 | 0.13800 | 7994 ft | 299 kts | 265° |
| 2026-05-06 13:03 | 51.64302 | 0.10454 | 7993 ft | 299 kts | 265° |
| 2026-05-06 13:03 | 51.64082 | 0.07126 | 7989 ft | 299 kts | 266° |
| 2026-05-06 13:03 | 51.63854 | 0.03790 | 7992 ft | 299 kts | 266° |
| 2026-05-06 13:03 | 51.63623 | 0.00462 | 7993 ft | 299 kts | 265° |
| 2026-05-06 13:04 | 51.63399 | -0.02827 | 8028 ft | 298 kts | 266° |
| 2026-05-06 13:04 | 51.63158 | -0.06153 | 8033 ft | 298 kts | 265° |
| 2026-05-06 13:04 | 51.62922 | -0.09462 | 8038 ft | 298 kts | 266° |
| 2026-05-06 13:04 | 51.62675 | -0.12782 | 8033 ft | 298 kts | 265° |
| 2026-05-06 13:05 | 51.62430 | -0.16088 | 8043 ft | 297 kts | 266° |
| 2026-05-06 13:05 | 51.62178 | -0.19396 | 8043 ft | 297 kts | 266° |
| 2026-05-06 13:05 | 51.61933 | -0.22639 | 8046 ft | 297 kts | 266° |
| 2026-05-06 13:05 | 51.61684 | -0.25956 | 7875 ft | 301 kts | 266° |
| 2026-05-06 13:06 | 51.61437 | -0.29307 | 7614 ft | 301 kts | 265° |
| 2026-05-06 13:06 | 51.61194 | -0.32632 | 7310 ft | 297 kts | 266° |
| 2026-05-06 13:06 | 51.60946 | -0.35892 | 7095 ft | 283 kts | 266° |
| 2026-05-06 13:06 | 51.60708 | -0.38906 | 7019 ft | 273 kts | 266° |
| 2026-05-06 13:07 | 51.60461 | -0.41959 | 7005 ft | 274 kts | 265° |
| 2026-05-06 13:07 | 51.60218 | -0.44990 | 6998 ft | 273 kts | 265° |
| 2026-05-06 13:07 | 51.59979 | -0.48004 | 6995 ft | 272 kts | 265° |
| 2026-05-06 13:07 | 51.59742 | -0.51035 | 6956 ft | 273 kts | 266° |
| 2026-05-06 13:08 | 51.59503 | -0.54095 | 6734 ft | 278 kts | 265° |
| 2026-05-06 13:08 | 51.59260 | -0.57146 | 6497 ft | 277 kts | 265° |
| 2026-05-06 13:08 | 51.59014 | -0.60208 | 6229 ft | 274 kts | 266° |
| 2026-05-06 13:08 | 51.58763 | -0.63234 | 5967 ft | 271 kts | 266° |
| 2026-05-06 13:09 | 51.58506 | -0.66222 | 5694 ft | 268 kts | 266° |
| 2026-05-06 13:09 | 51.58265 | -0.69190 | 5430 ft | 266 kts | 266° |
| 2026-05-06 13:09 | 51.58024 | -0.72151 | 5164 ft | 265 kts | 265° |
| 2026-05-06 13:09 | 51.57704 | -0.75035 | 4876 ft | 261 kts | 252° |
| 2026-05-06 13:10 | 51.56702 | -0.77445 | 4601 ft | 265 kts | 222° |
| 2026-05-06 13:10 | 51.55089 | -0.78813 | 4329 ft | 264 kts | 193° |
| 2026-05-06 13:10 | 51.53282 | -0.79131 | 4109 ft | 257 kts | 182° |
| 2026-05-06 13:10 | 51.51544 | -0.79206 | 4016 ft | 248 kts | 181° |
| 2026-05-06 13:11 | 51.49815 | -0.79247 | 3765 ft | 244 kts | 181° |
| 2026-05-06 13:11 | 51.48166 | -0.78860 | 3442 ft | 237 kts | 153° |
| 2026-05-06 13:11 | 51.46945 | -0.77268 | 3197 ft | 225 kts | 118° |
| 2026-05-06 13:11 | 51.46554 | -0.75064 | 3010 ft | 194 kts | 78° |
| 2026-05-06 13:12 | 51.46947 | -0.73024 | 3038 ft | 188 kts | 67° |
| 2026-05-06 13:12 | 51.47301 | -0.71024 | 2919 ft | 187 kts | 75° |
| 2026-05-06 13:12 | 51.47487 | -0.68980 | 2653 ft | 183 kts | 78° |
| 2026-05-06 13:12 | 51.47625 | -0.66973 | 2405 ft | 175 kts | 79° |
| 2026-05-06 13:13 | 51.47680 | -0.65079 | 2163 ft | 166 kts | 84° |
| 2026-05-06 13:13 | 51.47694 | -0.63238 | 1955 ft | 165 kts | 84° |
| 2026-05-06 13:13 | 51.47702 | -0.61411 | 1763 ft | 165 kts | 84° |
| 2026-05-06 13:13 | 51.47707 | -0.59572 | 1503 ft | 160 kts | 84° |
| 2026-05-06 13:14 | 51.47716 | -0.57797 | 1294 ft | 159 kts | 85° |
| 2026-05-06 13:14 | 51.47721 | -0.56105 | 1056 ft | 147 kts | 84° |
| 2026-05-06 13:14 | 51.47724 | -0.55081 | 952 ft | 141 kts | 86° |
| 2026-05-06 13:14 | 51.47725 | -0.54100 | 794 ft | 137 kts | 85° |
| 2026-05-06 13:15 | 51.47731 | -0.52551 | 596 ft | 142 kts | 85° |
| 2026-05-06 13:15 | 51.47737 | -0.50980 | 470 ft | 140 kts | 83° |
| 2026-05-06 13:15 | 51.47745 | -0.49432 | 238 ft | 135 kts | 85° |
| 2026-05-06 13:15 | 51.47739 | -0.47913 | 105 ft | 136 kts | 84° |
| 2026-05-06 13:16 | 51.47754 | -0.46558 | 101 ft | 100 kts | 89° |
| 2026-05-06 13:16 | 51.47759 | -0.45737 | 93 ft | 49 kts | 89° |
| 2026-05-06 13:16 | 51.47740 | -0.45253 | 98 ft | 31 kts | 119° |
| 2026-05-06 13:16 | 51.47626 | -0.45177 | 99 ft | 0 kts | 177° |
| 2026-05-06 13:17 | 51.47621 | -0.45177 | 99 ft | 7 kts | 178° |
| 2026-05-06 13:17 | 51.47615 | -0.45177 | 99 ft | 0 kts | 178° |
| 2026-05-06 13:17 | 51.47598 | -0.45031 | 97 ft | 27 kts | 88° |
| 2026-05-06 13:18 | 51.47600 | -0.44743 | 98 ft | 24 kts | 90° |
| 2026-05-06 13:18 | 51.47600 | -0.44474 | 96 ft | 24 kts | 90° |
| 2026-05-06 13:18 | 51.47593 | -0.44200 | 97 ft | 24 kts | 93° |
| 2026-05-06 13:18 | 51.47497 | -0.44065 | 97 ft | 19 kts | 176° |
| 2026-05-06 13:19 | 51.47428 | -0.44113 | 97 ft | 10 kts | 244° |
| 2026-05-06 13:19 | 51.47420 | -0.44204 | 96 ft | 0 kts | 269° |